Time;durP1;ratioP1;P1;durP2;ratioP2;P2;SDS_P1;SDS_P2;PMS_P1;PMS_P2;Temp;Humidity;BMP_temperature;BMP_pressure;BME280_temperature;BME280_humidity;BME280_pressure;Samples;Min_cycle;Max_cycle;Signal;HPM_P1;HPM_P2
2020/12/02 05:01:19;;;;;;;26.80;17.20;;;2.80;99.90;;;;;;5747736;22;20517;-62
2020/12/02 05:03:54;;;;;;;28.43;18.03;;;2.80;99.90;;;;;;5094051;28;20497;-64
2020/12/02 05:06:26;;;;;;;24.33;16.40;;;2.90;99.90;;;;;;5094286;28;20434;-64
2020/12/02 05:09:07;;;;;;;22.50;15.97;;;2.90;99.90;;;;;;5094504;28;20782;-64
2020/12/02 05:11:33;;;;;;;20.43;15.20;;;2.90;99.90;;;;;;5094450;28;20777;-64
2020/12/02 05:14:03;;;;;;;23.50;16.10;;;2.80;99.90;;;;;;5094516;28;20445;-63
2020/12/02 05:16:30;;;;;;;20.80;15.40;;;2.90;99.90;;;;;;5094051;28;20449;-63
2020/12/02 05:19:05;;;;;;;22.50;15.37;;;2.90;99.90;;;;;;5094101;28;20956;-63
2020/12/02 05:21:40;;;;;;;21.60;15.03;;;3.00;99.90;;;;;;5094231;28;20468;-63
2020/12/02 05:24:10;;;;;;;21.43;15.40;;;3.00;99.90;;;;;;5093916;28;20957;-62
2020/12/02 05:26:39;;;;;;;19.03;14.53;;;3.00;99.90;;;;;;5094443;28;20430;-63
2020/12/02 05:29:16;;;;;;;23.30;16.50;;;3.00;99.90;;;;;;5094000;28;20788;-62
2020/12/02 05:31:45;;;;;;;23.20;16.83;;;3.00;99.90;;;;;;5094175;28;20469;-62
2020/12/02 05:34:15;;;;;;;23.23;16.00;;;2.90;99.90;;;;;;5093934;28;20468;-62
2020/12/02 05:36:46;;;;;;;20.93;14.60;;;3.00;99.90;;;;;;5094370;28;20432;-63
2020/12/02 05:39:19;;;;;;;21.50;16.50;;;3.00;99.90;;;;;;5094014;28;20928;-62
2020/12/02 05:41:51;;;;;;;21.83;14.83;;;2.80;99.90;;;;;;5094176;28;20473;-63
2020/12/02 05:44:21;;;;;;;18.57;14.77;;;2.90;99.90;;;;;;5093956;28;20969;-64
2020/12/02 05:46:54;;;;;;;23.87;16.93;;;2.90;99.90;;;;;;5097564;28;20800;-64
2020/12/02 05:49:33;;;;;;;24.20;16.30;;;2.80;99.90;;;;;;5097762;28;20429;-62
2020/12/02 05:52:00;;;;;;;21.97;16.30;;;2.80;99.90;;;;;;5097392;28;20552;-63
2020/12/02 05:54:28;;;;;;;20.63;15.97;;;2.70;99.90;;;;;;5097414;28;20441;-62
2020/12/02 05:56:57;;;;;;;22.07;15.83;;;2.80;99.90;;;;;;5097807;28;20452;-62
2020/12/02 05:59:23;;;;;;;23.17;15.77;;;2.90;99.90;;;;;;5096893;28;20940;-62
2020/12/02 06:01:51;;;;;;;22.10;15.80;;;2.90;99.90;;;;;;5096849;28;20472;-62
2020/12/02 06:04:18;;;;;;;24.30;16.77;;;2.90;99.90;;;;;;5097106;28;20546;-62
2020/12/02 06:06:53;;;;;;;22.70;15.90;;;2.90;99.90;;;;;;5097128;28;20453;-61
2020/12/02 06:09:21;;;;;;;21.57;15.67;;;3.00;99.90;;;;;;5097507;28;20864;-63
2020/12/02 06:11:47;;;;;;;24.70;16.50;;;3.00;99.90;;;;;;5097174;28;20465;-63
2020/12/02 06:14:28;;;;;;;20.07;16.30;;;3.30;99.90;;;;;;5097197;28;20445;-62
2020/12/02 06:16:55;;;;;;;19.97;15.97;;;3.30;99.90;;;;;;5097314;28;20461;-62
2020/12/02 06:19:26;;;;;;;19.33;10.40;;;3.40;99.90;;;;;;5097188;28;20452;-62
2020/12/02 06:21:54;;;;;;;21.80;15.93;;;3.50;99.90;;;;;;5097064;28;20472;-63
2020/12/02 06:24:34;;;;;;;19.93;15.60;;;3.80;99.90;;;;;;5097062;28;20533;-62
2020/12/02 06:27:01;;;;;;;14.83;11.67;;;4.20;99.90;;;;;;5097090;28;20452;-61
2020/12/02 06:29:31;;;;;;;13.80;12.47;;;5.70;99.90;;;;;;5096683;28;20937;-63
2020/12/02 06:32:00;;;;;;;14.63;13.13;;;6.10;99.90;;;;;;5096699;28;20874;-62
2020/12/02 06:34:29;;;;;;;14.70;12.47;;;6.10;99.90;;;;;;5096950;28;20441;-62
2020/12/02 06:37:11;;;;;;;17.33;14.50;;;5.90;99.90;;;;;;5096473;28;20949;-64
2020/12/02 06:39:39;;;;;;;17.10;13.47;;;5.50;99.90;;;;;;5096759;28;20440;-63
2020/12/02 06:42:30;;;;;;;16.63;14.83;;;5.20;99.90;;;;;;5096227;28;20980;-64
2020/12/02 06:45:13;;;;;;;19.90;15.33;;;4.90;99.90;;;;;;5096558;28;20457;-62
2020/12/02 06:47:59;;;;;;;20.13;15.50;;;4.60;99.90;;;;;;5097645;28;20430;-62
2020/12/02 06:50:29;;;;;;;20.30;15.27;;;4.40;99.90;;;;;;5099527;28;20437;-63
2020/12/02 06:53:09;;;;;;;20.20;15.37;;;4.20;99.90;;;;;;5099249;28;20519;-63
2020/12/02 06:55:35;;;;;;;19.80;15.80;;;4.00;99.90;;;;;;5097659;28;20969;-63
2020/12/02 06:58:04;;;;;;;20.87;15.67;;;3.90;99.90;;;;;;5097305;28;20484;-63
2020/12/02 07:00:38;;;;;;;20.57;16.17;;;3.70;99.90;;;;;;5096640;28;20445;-63
2020/12/02 07:03:16;;;;;;;21.47;16.00;;;3.50;99.90;;;;;;5096165;28;20457;-63
2020/12/02 07:05:44;;;;;;;24.53;17.53;;;3.60;99.90;;;;;;5095921;28;20461;-62
2020/12/02 07:08:13;;;;;;;19.87;15.67;;;4.10;99.90;;;;;;5096203;28;20453;-62
2020/12/02 07:10:42;;;;;;;17.50;14.80;;;4.10;99.90;;;;;;5096185;28;20476;-63
2020/12/02 07:13:14;;;;;;;15.73;13.93;;;4.60;99.90;;;;;;5095942;28;20843;-64
2020/12/02 07:15:40;;;;;;;18.03;15.77;;;4.60;99.90;;;;;;5095980;28;20425;-64
2020/12/02 07:18:14;;;;;;;17.30;14.60;;;4.50;99.90;;;;;;5095957;28;20445;-64
2020/12/02 07:20:43;;;;;;;20.43;15.40;;;4.30;99.90;;;;;;5095838;28;20803;-64
2020/12/02 07:23:09;;;;;;;17.40;14.20;;;4.20;99.90;;;;;;5095966;28;20852;-63
2020/12/02 07:25:35;;;;;;;20.53;16.03;;;4.10;99.90;;;;;;5095643;28;20473;-63
2020/12/02 07:28:01;;;;;;;21.50;15.30;;;4.00;99.90;;;;;;5095790;28;20449;-63
2020/12/02 07:30:32;;;;;;;20.00;15.97;;;4.00;99.90;;;;;;5095818;28;20445;-62
2020/12/02 07:33:15;;;;;;;22.27;17.10;;;3.80;99.90;;;;;;5095715;28;20909;-63
2020/12/02 07:35:42;;;;;;;21.70;16.30;;;3.70;99.90;;;;;;5095494;28;20429;-62
2020/12/02 07:38:09;;;;;;;20.87;16.57;;;3.60;99.90;;;;;;5095803;28;20457;-63
2020/12/02 07:40:38;;;;;;;20.53;16.37;;;3.40;99.90;;;;;;5095144;28;20887;-63
2020/12/02 07:43:07;;;;;;;21.93;16.60;;;3.40;99.90;;;;;;5095925;28;20472;-64
2020/12/02 07:45:35;;;;;;;23.57;16.90;;;3.30;99.90;;;;;;5096205;28;20472;-62
2020/12/02 07:48:07;;;;;;;22.57;17.37;;;3.40;99.90;;;;;;5095881;28;20445;-62
2020/12/02 07:50:36;;;;;;;23.73;15.43;;;3.20;99.90;;;;;;5095232;28;20973;-63
2020/12/02 07:53:09;;;;;;;24.53;17.07;;;3.20;99.90;;;;;;5095825;28;20445;-62
2020/12/02 07:55:43;;;;;;;21.43;16.83;;;3.30;99.90;;;;;;5096267;28;20469;-62
2020/12/02 07:58:14;;;;;;;23.63;17.40;;;3.30;99.90;;;;;;5097679;28;20432;-63
2020/12/02 08:00:43;;;;;;;23.33;16.80;;;3.40;99.90;;;;;;5096965;28;20481;-63
2020/12/02 08:03:28;;;;;;;29.27;18.50;;;3.40;99.90;;;;;;5097133;28;20460;-62
2020/12/02 08:06:01;;;;;;;23.80;16.70;;;3.40;99.90;;;;;;5096301;28;20457;-63
2020/12/02 08:08:27;;;;;;;27.00;18.70;;;3.30;99.90;;;;;;5095789;28;20434;-64
2020/12/02 08:11:03;;;;;;;29.03;19.47;;;3.30;99.90;;;;;;5095724;28;20464;-63
2020/12/02 08:13:30;;;;;;;29.20;19.30;;;3.30;99.90;;;;;;5095316;28;20843;-62
2020/12/02 08:15:58;;;;;;;30.50;18.47;;;3.20;99.90;;;;;;5095509;28;20436;-63
2020/12/02 08:18:26;;;;;;;27.23;17.93;;;3.20;99.90;;;;;;5095271;28;20448;-63
2020/12/02 08:20:53;;;;;;;22.50;16.77;;;3.20;99.90;;;;;;5095390;28;20480;-63
2020/12/02 08:23:25;;;;;;;24.57;18.13;;;3.10;99.90;;;;;;5094845;28;20818;-64
2020/12/02 08:26:01;;;;;;;29.47;18.57;;;3.10;99.90;;;;;;5095340;28;20457;-62
2020/12/02 08:28:35;;;;;;;31.00;18.57;;;3.20;99.90;;;;;;5095360;28;20789;-63
2020/12/02 08:31:06;;;;;;;26.87;18.03;;;3.20;99.90;;;;;;5094900;28;20469;-64
2020/12/02 08:33:33;;;;;;;30.00;19.03;;;3.20;99.90;;;;;;5094684;28;20438;-64
2020/12/02 08:36:05;;;;;;;27.10;17.37;;;3.20;99.90;;;;;;5094815;28;20445;-62
2020/12/02 08:38:35;;;;;;;25.33;18.33;;;3.30;99.90;;;;;;5094985;28;20429;-64
2020/12/02 08:41:02;;;;;;;23.00;17.30;;;3.30;99.90;;;;;;5094105;28;20992;-62
2020/12/02 08:43:36;;;;;;;28.20;18.97;;;3.30;99.90;;;;;;5094499;28;20802;-62
2020/12/02 08:46:10;;;;;;;26.73;18.83;;;3.30;99.90;;;;;;5094571;28;20485;-61
2020/12/02 08:48:38;;;;;;;25.30;17.23;;;3.30;99.90;;;;;;5094546;28;20459;-64
2020/12/02 08:51:05;;;;;;;27.03;18.03;;;3.40;99.90;;;;;;5094332;28;20465;-63
2020/12/02 08:53:32;;;;;;;23.73;17.30;;;3.50;99.90;;;;;;5094214;28;20960;-62
2020/12/02 08:55:59;;;;;;;25.67;17.67;;;3.50;99.90;;;;;;5094570;28;20449;-63
2020/12/02 08:58:26;;;;;;;23.60;17.23;;;3.50;99.90;;;;;;5094617;28;20452;-63
2020/12/02 09:00:53;;;;;;;24.87;18.13;;;3.60;99.90;;;;;;5094128;28;20488;-62
2020/12/02 09:03:23;;;;;;;27.30;19.17;;;3.60;99.90;;;;;;5094451;28;20544;-62
2020/12/02 09:05:49;;;;;;;25.53;16.10;;;3.70;99.90;;;;;;5094379;28;20476;-62
2020/12/02 09:08:15;;;;;;;24.37;16.30;;;3.60;99.90;;;;;;5094207;28;20468;-63
2020/12/02 09:10:42;;;;;;;22.57;16.50;;;3.60;99.90;;;;;;5094177;28;20472;-62
2020/12/02 09:13:08;;;;;;;22.13;16.30;;;3.60;99.90;;;;;;5094376;28;20461;-62
2020/12/02 09:15:34;;;;;;;27.30;16.10;;;3.60;99.90;;;;;;5094019;28;20445;-62
2020/12/02 09:18:01;;;;;;;24.43;18.07;;;3.60;99.90;;;;;;5094680;28;20449;-63
2020/12/02 09:20:27;;;;;;;21.97;15.80;;;3.50;99.90;;;;;;5093367;28;20449;-63
2020/12/02 09:22:54;;;;;;;23.80;17.10;;;3.50;99.90;;;;;;5094028;28;20460;-62
2020/12/02 09:25:20;;;;;;;25.60;16.10;;;3.40;99.90;;;;;;5093594;28;20469;-62
2020/12/02 09:27:46;;;;;;;33.60;16.23;;;3.40;99.90;;;;;;5094229;28;20441;-62
2020/12/02 09:30:13;;;;;;;21.80;15.17;;;3.40;99.90;;;;;;5093948;28;20449;-62
2020/12/02 09:32:39;;;;;;;22.37;15.73;;;3.50;99.90;;;;;;5094228;28;20449;-62
2020/12/02 09:35:07;;;;;;;21.50;15.90;;;3.50;99.90;;;;;;5094207;28;20519;-62
2020/12/02 09:37:35;;;;;;;24.00;15.13;;;3.50;99.90;;;;;;5094364;28;20503;-62
2020/12/02 09:40:04;;;;;;;30.10;16.23;;;3.60;99.90;;;;;;5094141;28;20445;-62
2020/12/02 09:42:44;;;;;;;22.63;15.80;;;3.60;99.90;;;;;;5094003;28;20472;-62
2020/12/02 09:45:14;;;;;;;22.23;15.13;;;3.60;99.90;;;;;;5094153;28;20461;-62
2020/12/02 09:47:41;;;;;;;21.10;13.97;;;3.50;99.90;;;;;;5095591;28;20449;-63
2020/12/02 09:50:08;;;;;;;22.63;14.80;;;3.60;99.90;;;;;;5094343;28;20452;-62
2020/12/02 09:52:44;;;;;;;18.33;13.90;;;3.60;99.90;;;;;;5096352;28;20492;-63
2020/12/02 09:55:18;;;;;;;21.73;14.30;;;3.60;99.90;;;;;;5094789;28;20440;-62
2020/12/02 09:57:44;;;;;;;21.50;14.80;;;3.60;99.90;;;;;;5094061;28;20441;-62
2020/12/02 10:00:13;;;;;;;23.83;15.33;;;3.60;99.90;;;;;;5093866;28;20453;-62
2020/12/02 10:03:26;;;;;;;23.93;15.10;;;3.60;99.90;;;;;;5094355;28;20452;-62
2020/12/02 10:06:30;;;;;;;17.80;12.80;;;3.70;99.90;;;;;;5093755;28;20988;-62
2020/12/02 10:09:09;;;;;;;22.50;15.27;;;3.50;99.90;;;;;;5093769;28;20524;-62
2020/12/02 10:11:49;;;;;;;20.10;13.73;;;3.60;99.90;;;;;;5094795;28;20469;-63
2020/12/02 10:14:59;;;;;;;25.10;15.77;;;3.60;99.90;;;;;;5094299;28;20494;-62
2020/12/02 10:17:51;;;;;;;23.00;15.40;;;3.60;99.90;;;;;;5083936;28;20445;-63
2020/12/02 10:20:31;;;;;;;22.70;15.10;;;3.70;99.90;;;;;;5094059;28;20426;-63
2020/12/02 10:23:18;;;;;;;20.80;14.57;;;3.70;99.90;;;;;;5094099;28;20774;-63
2020/12/02 10:26:22;;;;;;;21.03;14.47;;;3.70;99.90;;;;;;5095152;28;20823;-62
2020/12/02 10:28:57;;;;;;;26.00;16.87;;;3.60;99.90;;;;;;5095740;28;20429;-62
2020/12/02 10:31:33;;;;;;;25.83;15.50;;;3.70;99.90;;;;;;5097166;28;20464;-62
2020/12/02 10:34:03;;;;;;;25.40;15.60;;;3.60;99.90;;;;;;5099024;28;20433;-62
2020/12/02 10:36:32;;;;;;;24.83;16.30;;;3.60;99.90;;;;;;5098414;28;20441;-63
2020/12/02 10:39:03;;;;;;;25.70;16.37;;;3.60;99.90;;;;;;5097272;28;20445;-62
2020/12/02 10:41:39;;;;;;;22.97;15.70;;;3.60;99.90;;;;;;5097473;28;20472;-62
2020/12/02 10:44:38;;;;;;;25.53;14.80;;;3.70;99.90;;;;;;5098292;28;20437;-62
2020/12/02 10:47:35;;;;;;;27.67;16.70;;;3.80;99.90;;;;;;5097574;28;20426;-63
2020/12/02 10:50:02;;;;;;;25.27;16.50;;;3.80;99.90;;;;;;5094776;28;20441;-62
2020/12/02 10:52:28;;;;;;;26.47;16.87;;;3.80;99.90;;;;;;5096883;28;20502;-62
2020/12/02 10:54:56;;;;;;;28.97;19.13;;;3.70;99.90;;;;;;5097535;28;20452;-62
2020/12/02 10:57:24;;;;;;;25.30;17.63;;;3.70;99.90;;;;;;5096399;28;20959;-63
2020/12/02 10:59:53;;;;;;;26.57;17.13;;;3.70;99.90;;;;;;5097997;28;20809;-63
2020/12/02 11:02:21;;;;;;;30.10;18.77;;;3.70;99.90;;;;;;5099229;28;20492;-63
2020/12/02 11:04:48;;;;;;;24.60;17.03;;;3.60;99.90;;;;;;5097930;28;20453;-64
2020/12/02 11:07:29;;;;;;;26.67;18.23;;;3.60;99.90;;;;;;5097068;28;20434;-64
2020/12/02 11:10:02;;;;;;;28.27;17.70;;;3.50;99.90;;;;;;5096427;28;20437;-63
2020/12/02 11:12:54;;;;;;;23.70;15.43;;;3.40;99.90;;;;;;5096248;28;20476;-64
2020/12/02 11:15:39;;;;;;;23.53;15.60;;;3.60;99.90;;;;;;5096440;28;20430;-64
2020/12/02 11:18:33;;;;;;;24.83;16.10;;;3.60;99.90;;;;;;5096232;28;20433;-64
2020/12/02 11:21:12;;;;;;;25.10;16.07;;;3.50;99.90;;;;;;5095996;28;20476;-62
2020/12/02 11:23:51;;;;;;;25.63;15.90;;;3.60;99.90;;;;;;5096557;28;20472;-63
2020/12/02 11:26:24;;;;;;;24.63;16.30;;;3.70;99.90;;;;;;5096171;28;20861;-62
2020/12/02 11:28:52;;;;;;;25.87;15.97;;;3.70;99.90;;;;;;5096518;28;20449;-64
2020/12/02 11:31:44;;;;;;;23.17;15.77;;;3.70;99.90;;;;;;5095717;28;20783;-62
2020/12/02 11:34:22;;;;;;;23.93;17.10;;;3.70;99.90;;;;;;5096003;28;20429;-64
2020/12/02 11:36:56;;;;;;;26.83;16.30;;;3.70;99.90;;;;;;5095974;28;20437;-63
2020/12/02 11:39:45;;;;;;;21.63;16.20;;;3.80;99.90;;;;;;5095849;28;20457;-63
2020/12/02 11:42:19;;;;;;;24.10;16.00;;;3.60;99.90;;;;;;5095529;28;20461;-62
2020/12/02 11:44:53;;;;;;;25.17;15.57;;;3.60;99.90;;;;;;5095342;28;20947;-62
2020/12/02 11:47:27;;;;;;;25.37;16.10;;;4.30;99.90;;;;;;5095554;28;20429;-62
2020/12/02 11:49:56;;;;;;;23.80;15.93;;;4.60;99.90;;;;;;5096762;28;20488;-61
2020/12/02 11:52:34;;;;;;;22.80;15.63;;;5.00;99.90;;;;;;5095979;28;20465;-62
2020/12/02 11:55:05;;;;;;;19.63;14.60;;;5.20;99.90;;;;;;5095357;28;20766;-64
2020/12/02 11:57:32;;;;;;;22.03;15.27;;;5.60;99.90;;;;;;5095341;28;20822;-62
2020/12/02 11:59:58;;;;;;;26.60;16.23;;;5.70;99.90;;;;;;5095282;28;20445;-63
2020/12/02 12:02:38;;;;;;;25.47;15.90;;;5.50;99.90;;;;;;5094745;28;20484;-62
2020/12/02 12:05:13;;;;;;;27.13;15.70;;;5.30;99.90;;;;;;5094939;28;20461;-62
2020/12/02 12:07:47;;;;;;;23.87;17.07;;;5.10;99.90;;;;;;5095237;28;20787;-64
2020/12/02 12:10:19;;;;;;;26.37;15.70;;;5.00;99.90;;;;;;5095362;28;20440;-63
2020/12/02 12:12:53;;;;;;;26.13;17.47;;;4.90;99.90;;;;;;5095552;28;20434;-64
2020/12/02 12:15:29;;;;;;;23.30;16.20;;;4.80;99.90;;;;;;5095437;28;20430;-64
2020/12/02 12:17:56;;;;;;;26.93;16.77;;;4.70;99.90;;;;;;5095117;28;20436;-63
2020/12/02 12:20:25;;;;;;;27.30;17.30;;;4.70;99.90;;;;;;5094968;28;20436;-64
2020/12/02 12:23:01;;;;;;;32.73;16.37;;;4.50;99.90;;;;;;5094382;28;20939;-64
2020/12/02 12:25:32;;;;;;;29.00;18.60;;;4.50;99.90;;;;;;5094759;28;20461;-61
2020/12/02 12:28:01;;;;;;;30.03;17.50;;;4.40;99.90;;;;;;5094546;28;20469;-62
2020/12/02 12:30:27;;;;;;;29.47;16.50;;;4.40;99.90;;;;;;5094481;28;20437;-63
2020/12/02 12:33:04;;;;;;;25.07;15.10;;;4.20;99.90;;;;;;5094505;28;20803;-62
2020/12/02 12:35:35;;;;;;;26.87;16.47;;;4.30;99.90;;;;;;5094771;28;20440;-62
2020/12/02 12:38:10;;;;;;;25.63;16.13;;;4.20;99.90;;;;;;5094564;28;20434;-62
2020/12/02 12:40:41;;;;;;;28.80;18.43;;;4.00;99.90;;;;;;5095541;28;20512;-63
2020/12/02 12:43:12;;;;;;;28.50;16.73;;;4.00;99.90;;;;;;5094931;28;20438;-64
2020/12/02 12:45:43;;;;;;;26.70;16.67;;;4.00;99.90;;;;;;5095194;28;20569;-64
2020/12/02 12:48:14;;;;;;;28.80;15.87;;;3.80;99.90;;;;;;5094357;28;20920;-63
2020/12/02 12:50:42;;;;;;;28.60;18.00;;;3.70;99.90;;;;;;5094303;28;20465;-62
2020/12/02 12:53:08;;;;;;;32.87;19.33;;;3.70;99.90;;;;;;5094301;28;20445;-62
2020/12/02 12:55:35;;;;;;;29.00;18.00;;;3.70;99.90;;;;;;5093851;28;20437;-62
2020/12/02 12:58:09;;;;;;;30.57;18.57;;;3.60;99.90;;;;;;5093776;28;20456;-62
2020/12/02 13:00:39;;;;;;;32.63;18.53;;;3.50;99.90;;;;;;5094003;28;20469;-63
2020/12/02 13:03:12;;;;;;;32.30;19.50;;;3.30;99.90;;;;;;5094285;28;20475;-64
2020/12/02 13:05:38;;;;;;;27.30;17.20;;;3.30;99.90;;;;;;5094300;28;20470;-63
2020/12/02 13:08:14;;;;;;;29.33;18.57;;;3.30;99.90;;;;;;5094206;28;20453;-62
2020/12/02 13:10:49;;;;;;;29.07;19.27;;;3.30;99.90;;;;;;5094312;28;20464;-63
2020/12/02 13:13:21;;;;;;;25.70;16.67;;;3.30;99.90;;;;;;5094375;28;20433;-63
2020/12/02 13:15:56;;;;;;;28.63;17.97;;;3.30;99.90;;;;;;5094080;28;20794;-62
2020/12/02 13:18:38;;;;;;;31.30;18.77;;;3.40;99.90;;;;;;5094098;28;20436;-62
2020/12/02 13:21:11;;;;;;;24.87;16.50;;;3.20;99.90;;;;;;5094179;28;20479;-63
2020/12/02 13:23:41;;;;;;;29.47;16.43;;;3.30;99.90;;;;;;5094014;28;20434;-62
2020/12/02 13:26:12;;;;;;;26.00;16.50;;;4.30;99.90;;;;;;5094060;28;20462;-63
2020/12/02 13:28:46;;;;;;;22.33;16.27;;;4.50;99.90;;;;;;5094248;28;20445;-61
2020/12/02 13:31:19;;;;;;;22.90;15.20;;;4.70;99.90;;;;;;5093752;28;20474;-61
2020/12/02 13:33:48;;;;;;;21.40;14.73;;;5.00;99.90;;;;;;5094443;28;20434;-62
2020/12/02 13:36:20;;;;;;;23.63;14.50;;;5.00;99.90;;;;;;5093570;28;20441;-63
2020/12/02 13:38:47;;;;;;;23.87;16.30;;;5.20;99.90;;;;;;5094043;28;20457;-63
2020/12/02 13:41:23;;;;;;;23.47;15.87;;;5.40;99.90;;;;;;5093784;28;20469;-62
2020/12/02 13:43:53;;;;;;;23.20;16.50;;;5.60;99.90;;;;;;5094126;28;20439;-62
2020/12/02 13:46:21;;;;;;;25.07;16.73;;;5.70;99.90;;;;;;5094198;28;20462;-63
2020/12/02 13:48:51;;;;;;;26.93;18.40;;;5.80;99.90;;;;;;5093967;28;20445;-64
2020/12/02 13:51:33;;;;;;;27.23;18.57;;;5.50;99.90;;;;;;5093772;28;20530;-63
2020/12/02 13:54:05;;;;;;;29.23;20.10;;;5.20;99.90;;;;;;5093493;28;20441;-63
2020/12/02 13:56:35;;;;;;;27.60;18.03;;;5.00;99.90;;;;;;5093895;28;20432;-62
2020/12/02 13:59:14;;;;;;;26.07;17.20;;;4.80;99.90;;;;;;5093312;28;20468;-63
2020/12/02 14:01:42;;;;;;;29.27;18.07;;;4.60;99.90;;;;;;5093147;28;20479;-62
2020/12/02 14:04:32;;;;;;;26.73;16.43;;;4.50;99.90;;;;;;5093757;28;20453;-62
2020/12/02 14:07:01;;;;;;;27.93;16.80;;;4.20;99.90;;;;;;5095593;28;20826;-62
2020/12/02 14:09:33;;;;;;;27.80;16.97;;;4.10;99.90;;;;;;5097471;28;20836;-62
2020/12/02 14:12:02;;;;;;;27.03;17.17;;;3.90;99.90;;;;;;5097654;28;20832;-63
2020/12/02 14:14:31;;;;;;;31.10;17.73;;;3.90;99.90;;;;;;5098258;28;20449;-62
2020/12/02 14:16:58;;;;;;;32.20;17.47;;;3.80;99.90;;;;;;5099747;28;20452;-62
2020/12/02 14:19:25;;;;;;;29.83;17.83;;;3.70;99.90;;;;;;5108396;28;20440;-63
2020/12/02 14:22:05;;;;;;;31.47;18.60;;;3.60;99.90;;;;;;5109784;28;20472;-63
2020/12/02 14:24:32;;;;;;;36.00;20.50;;;3.60;99.90;;;;;;5110397;28;20818;-63
2020/12/02 14:26:58;;;;;;;32.17;18.90;;;3.40;99.90;;;;;;5112075;28;20445;-63
2020/12/02 14:29:24;;;;;;;38.03;20.63;;;3.40;99.90;;;;;;5109151;28;20964;-62
2020/12/02 14:31:51;;;;;;;32.60;18.77;;;3.30;99.90;;;;;;5104497;28;20465;-63
2020/12/02 14:34:18;;;;;;;33.97;20.87;;;3.30;99.90;;;;;;5097997;28;20897;-63
2020/12/02 14:36:44;;;;;;;33.93;19.73;;;3.30;99.90;;;;;;5097549;28;20959;-63
2020/12/02 14:39:11;;;;;;;31.90;18.50;;;3.20;99.90;;;;;;5097676;28;20445;-62
2020/12/02 14:41:37;;;;;;;29.03;18.83;;;3.20;99.90;;;;;;5097650;28;20559;-62
2020/12/02 14:44:03;;;;;;;28.77;17.40;;;3.20;99.90;;;;;;5097258;28;20445;-62
2020/12/02 14:46:29;;;;;;;31.90;18.00;;;3.10;99.90;;;;;;5097239;28;20568;-62
2020/12/02 14:48:56;;;;;;;27.80;16.30;;;3.10;99.90;;;;;;5096610;28;20548;-62
2020/12/02 14:51:23;;;;;;;22.77;14.70;;;3.10;99.90;;;;;;5096819;28;20473;-62
2020/12/02 14:53:49;;;;;;;25.73;15.47;;;3.00;99.90;;;;;;5096566;28;20941;-62
2020/12/02 14:56:17;;;;;;;23.13;14.87;;;3.00;99.90;;;;;;5097360;28;20456;-62
2020/12/02 14:58:59;;;;;;;24.47;14.50;;;2.90;99.90;;;;;;5096970;28;20449;-63
2020/12/02 15:01:25;;;;;;;24.73;14.53;;;2.90;99.90;;;;;;5096587;28;20873;-63
2020/12/02 15:03:51;;;;;;;24.00;15.37;;;2.90;99.90;;;;;;5096724;28;20445;-64
2020/12/02 15:06:36;;;;;;;22.83;12.87;;;2.80;99.90;;;;;;5096518;28;20469;-64
2020/12/02 15:09:14;;;;;;;26.47;15.73;;;2.80;99.90;;;;;;5096096;28;20843;-64
2020/12/02 15:11:54;;;;;;;26.13;14.50;;;2.70;99.90;;;;;;5096561;28;20468;-64
2020/12/02 15:14:21;;;;;;;23.60;13.60;;;2.70;99.90;;;;;;5096594;28;20433;-63
2020/12/02 15:16:58;;;;;;;19.93;12.23;;;2.80;99.90;;;;;;5096255;28;20446;-64
2020/12/02 15:19:26;;;;;;;22.00;13.03;;;2.70;99.90;;;;;;5096512;28;20925;-64
2020/12/02 15:21:56;;;;;;;25.80;14.50;;;2.80;99.90;;;;;;5096549;28;20470;-63
2020/12/02 15:24:25;;;;;;;23.07;13.80;;;2.80;99.90;;;;;;5096591;28;20440;-64
2020/12/02 15:26:54;;;;;;;30.70;15.77;;;2.70;99.90;;;;;;5096182;28;20516;-63
2020/12/02 15:29:21;;;;;;;27.60;15.33;;;2.70;99.90;;;;;;5096508;28;20457;-64
2020/12/02 15:31:54;;;;;;;23.03;13.60;;;2.60;99.90;;;;;;5096465;28;20496;-64
2020/12/02 15:34:20;;;;;;;26.07;15.53;;;2.60;99.90;;;;;;5096188;28;20437;-63
2020/12/02 15:36:55;;;;;;;24.20;14.60;;;2.60;99.90;;;;;;5096069;28;20868;-63
2020/12/02 15:39:30;;;;;;;21.83;13.90;;;2.60;99.90;;;;;;5095690;28;20444;-64
2020/12/02 15:42:02;;;;;;;21.83;15.43;;;2.60;99.90;;;;;;5096663;28;20471;-64
2020/12/02 15:44:51;;;;;;;22.07;14.57;;;2.60;99.90;;;;;;5095785;28;20434;-64
2020/12/02 15:47:25;;;;;;;27.07;15.10;;;2.70;99.90;;;;;;5095656;28;20444;-63
2020/12/02 15:49:58;;;;;;;23.03;15.13;;;2.70;99.90;;;;;;5095763;28;20440;-63
2020/12/02 15:52:30;;;;;;;21.50;13.93;;;2.50;99.90;;;;;;5095774;28;20876;-63
2020/12/02 15:55:37;;;;;;;21.50;14.07;;;2.40;99.90;;;;;;5095716;28;20433;-64
2020/12/02 15:58:34;;;;;;;25.73;14.50;;;2.40;99.90;;;;;;5059538;28;20532;-63
2020/12/02 16:01:01;;;;;;;21.07;13.20;;;2.40;99.90;;;;;;5095291;28;20477;-63
2020/12/02 16:03:29;;;;;;;24.37;15.10;;;2.40;99.90;;;;;;5095398;28;20456;-63
2020/12/02 16:05:56;;;;;;;25.20;15.30;;;2.40;99.90;;;;;;5095631;28;20469;-64
2020/12/02 16:08:33;;;;;;;24.57;14.00;;;2.50;99.90;;;;;;5095096;28;20506;-63
2020/12/02 16:11:03;;;;;;;24.93;14.30;;;2.50;99.90;;;;;;5095999;28;20473;-63
2020/12/02 16:13:29;;;;;;;27.17;14.40;;;2.40;99.90;;;;;;5096052;28;20456;-63
2020/12/02 16:15:55;;;;;;;23.73;14.77;;;2.40;99.90;;;;;;5096371;28;20437;-62
2020/12/02 16:18:21;;;;;;;22.57;14.37;;;2.50;99.90;;;;;;5096422;28;20812;-62
2020/12/02 16:20:48;;;;;;;24.87;14.53;;;2.30;99.90;;;;;;5095975;28;20469;-62
2020/12/02 16:23:18;;;;;;;23.13;14.30;;;2.30;99.90;;;;;;5095249;28;20816;-62
2020/12/02 16:25:48;;;;;;;23.83;15.60;;;2.30;99.90;;;;;;5095293;28;20551;-62
2020/12/02 16:28:20;;;;;;;25.43;14.80;;;2.30;99.90;;;;;;5095727;28;20445;-62
2020/12/02 16:30:46;;;;;;;28.90;16.80;;;2.30;99.90;;;;;;5095631;28;20476;-62
2020/12/02 16:33:20;;;;;;;24.70;15.23;;;2.20;99.90;;;;;;5095326;28;20814;-62
2020/12/02 16:35:46;;;;;;;27.17;14.83;;;2.30;99.90;;;;;;5094938;28;20430;-62
2020/12/02 16:38:18;;;;;;;28.03;15.20;;;2.30;99.90;;;;;;5094657;28;20453;-63
2020/12/02 16:40:44;;;;;;;27.23;15.23;;;2.40;99.90;;;;;;5094600;28;20473;-62
2020/12/02 16:43:29;;;;;;;26.90;15.23;;;2.20;99.90;;;;;;5094751;28;20452;-62
2020/12/02 16:46:01;;;;;;;27.93;15.63;;;2.30;99.90;;;;;;5094441;28;20461;-63
2020/12/02 16:48:40;;;;;;;26.30;14.97;;;2.30;99.90;;;;;;5094272;28;20436;-62
2020/12/02 16:51:12;;;;;;;25.70;14.80;;;2.20;99.90;;;;;;5094419;28;20469;-63
2020/12/02 16:54:03;;;;;;;24.07;15.27;;;2.30;99.90;;;;;;5094529;28;20433;-63
2020/12/02 16:56:42;;;;;;;23.90;15.60;;;2.40;99.90;;;;;;5092163;28;20457;-63
2020/12/02 16:59:18;;;;;;;23.93;14.33;;;2.40;99.90;;;;;;5094548;28;20444;-63
2020/12/02 17:01:52;;;;;;;24.80;16.27;;;2.40;99.90;;;;;;5094082;28;20881;-62
2020/12/02 17:04:22;;;;;;;25.70;15.60;;;2.40;99.90;;;;;;5094809;28;20767;-64
2020/12/02 17:06:49;;;;;;;28.33;14.70;;;2.40;99.90;;;;;;5094421;28;20457;-62
2020/12/02 17:09:15;;;;;;;23.40;14.80;;;2.50;99.90;;;;;;5094685;28;20456;-63
2020/12/02 17:12:05;;;;;;;26.47;15.10;;;2.50;99.90;;;;;;5094597;28;20476;-64
2020/12/02 17:14:56;;;;;;;28.23;17.17;;;2.40;99.90;;;;;;5095591;28;20453;-62
2020/12/02 17:17:33;;;;;;;26.30;15.73;;;2.20;99.90;;;;;;5094699;28;20429;-62
2020/12/02 17:20:18;;;;;;;27.17;16.43;;;2.30;99.90;;;;;;5094720;28;20430;-65
2020/12/02 17:23:01;;;;;;;27.37;17.00;;;2.40;99.90;;;;;;5093916;28;20440;-63
2020/12/02 17:25:39;;;;;;;24.53;15.33;;;2.40;99.90;;;;;;5095017;28;20465;-63
2020/12/02 17:28:31;;;;;;;26.40;14.87;;;2.30;99.90;;;;;;5094470;28;20441;-63
2020/12/02 17:31:14;;;;;;;25.70;15.23;;;2.30;99.90;;;;;;5094575;28;20472;-63
2020/12/02 17:33:46;;;;;;;24.73;14.27;;;2.40;99.90;;;;;;5094519;28;20426;-62
2020/12/02 17:36:22;;;;;;;23.80;15.07;;;2.30;99.90;;;;;;5094304;28;20434;-63
2020/12/02 17:38:57;;;;;;;26.47;16.30;;;2.30;99.90;;;;;;5094157;28;20437;-62
2020/12/02 17:41:52;;;;;;;22.10;14.30;;;2.40;99.90;;;;;;5096997;28;20468;-63
2020/12/02 17:44:34;;;;;;;23.10;13.27;;;2.40;99.90;;;;;;5098649;28;20818;-62
2020/12/02 17:47:10;;;;;;;23.83;15.60;;;2.40;99.90;;;;;;5098309;28;20557;-62
2020/12/02 17:49:43;;;;;;;27.00;14.60;;;2.40;99.90;;;;;;5098615;28;20864;-63
2020/12/02 17:52:51;;;;;;;25.67;14.77;;;2.30;99.90;;;;;;5098693;28;20469;-64
2020/12/02 17:55:21;;;;;;;25.13;15.70;;;2.30;99.90;;;;;;5090730;28;20441;-63
2020/12/02 17:57:55;;;;;;;26.07;15.73;;;2.20;99.90;;;;;;5098990;28;20453;-63
2020/12/02 18:00:21;;;;;;;23.43;14.87;;;2.20;99.90;;;;;;5098712;28;20425;-64
2020/12/02 18:03:00;;;;;;;28.63;16.10;;;2.20;99.90;;;;;;5098525;28;20435;-63
2020/12/02 18:05:41;;;;;;;29.60;17.70;;;2.30;99.90;;;;;;5098603;28;20813;-63